Time;durP1;ratioP1;P1;durP2;ratioP2;P2;SDS_P1;SDS_P2;PMS_P1;PMS_P2;Temp;Humidity;BMP_temperature;BMP_pressure;BME280_temperature;BME280_humidity;BME280_pressure;Samples;Min_cycle;Max_cycle;Signal;HPM_P1;HPM_P2
2022/01/23 00:04:37;;;;;;;6.60;3.00;;;;;;101365.07;;;;106787;1294;63448;-33
2022/01/23 00:07:08;;;;;;;6.90;3.20;;;;;;101364.93;;;;106849;1294;63408;-33
2022/01/23 00:09:36;;;;;;;7.40;3.50;;;;;;101368.52;;;;106594;1297;66752;-33
2022/01/23 00:12:21;;;;;;;7.00;3.30;;;;;;101368.80;;;;106643;1294;63345;-33
2022/01/23 00:17:37;;;;;;;7.00;3.30;;;;;;101370.52;;;;106798;1294;63384;-33
2022/01/23 00:20:09;;;;;;;6.50;3.30;;;;;;101366.55;;;;106819;1293;63393;-33
2022/01/23 00:22:45;;;;;;;6.50;3.00;;;;;;101367.97;;;;106813;1294;68547;-32
2022/01/23 00:30:46;;;;;;;6.90;3.40;;;;;;101369.88;;;;106793;1294;63402;-33
2022/01/23 00:33:14;;;;;;;7.00;3.10;;;;;;101369.85;;;;106828;1294;63339;-32
2022/01/23 00:35:45;;;;;;;5.20;2.80;;;;;;101371.01;;;;106599;1294;66736;-32
2022/01/23 00:38:14;;;;;;;6.10;2.80;;;;;;101366.85;;;;106818;1294;63400;-32
2022/01/23 00:40:43;;;;;;;7.30;3.20;;;;;;101361.24;;;;106800;1294;63405;-33
2022/01/23 00:43:17;;;;;;;6.50;3.40;;;;;;101353.91;;;;106770;1294;63462;-33
2022/01/23 00:45:49;;;;;;;7.00;3.30;;;;;;101355.15;;;;106692;1294;63366;-34
2022/01/23 00:48:17;;;;;;;7.00;3.50;;;;;;101358.52;;;;106689;1294;67760;-32
2022/01/23 00:50:45;;;;;;;6.80;3.00;;;;;;101359.91;;;;106824;1294;63437;-34
2022/01/23 00:53:16;;;;;;;5.60;3.00;;;;;;101361.91;;;;106789;1294;63394;-33
2022/01/23 00:55:46;;;;;;;6.50;3.00;;;;;;101362.23;;;;106667;1294;63465;-46
2022/01/23 00:58:17;;;;;;;5.60;2.70;;;;;;101361.14;;;;106831;1293;63350;-32
2022/01/23 01:00:44;;;;;;;6.30;2.80;;;;;;101363.29;;;;106671;1294;66676;-32
2022/01/23 01:03:11;;;;;;;6.70;3.40;;;;;;101366.09;;;;106582;1294;292793;-32
2022/01/23 01:05:39;;;;;;;6.50;2.70;;;;;;101362.45;;;;106811;1294;63399;-32
2022/01/23 01:08:08;;;;;;;5.50;2.90;;;;;;101367.59;;;;106819;1293;63435;-32
2022/01/23 01:10:54;;;;;;;6.10;3.10;;;;;;101367.08;;;;106750;1294;63977;-39
2022/01/23 01:13:23;;;;;;;6.20;3.00;;;;;;101365.41;;;;106815;1293;68625;-42
2022/01/23 01:16:24;;;;;;;6.20;3.10;;;;;;101368.27;;;;106806;1294;63493;-31
2022/01/23 01:30:26;;;;;;;6.60;3.00;;;;;;101379.80;;;;106826;1294;63356;-39
2022/01/23 01:35:56;;;;;;;5.50;3.00;;;;;;101390.88;;;;106797;1294;63301;-32
2022/01/23 01:38:24;;;;;;;5.80;3.00;;;;;;101393.42;;;;106764;1293;63484;-32
2022/01/23 01:40:52;;;;;;;6.10;2.90;;;;;;101393.20;;;;106858;1293;65659;-32
2022/01/23 01:43:19;;;;;;;6.00;3.00;;;;;;101393.05;;;;106676;1294;63577;-32
2022/01/23 01:45:47;;;;;;;6.20;3.30;;;;;;101389.27;;;;106813;1293;63383;-32
2022/01/23 01:48:17;;;;;;;6.00;3.10;;;;;;101387.08;;;;106677;1294;63330;-32
2022/01/23 01:50:47;;;;;;;6.50;2.80;;;;;;101388.81;;;;106840;1293;63350;-38
2022/01/23 01:53:14;;;;;;;6.40;3.30;;;;;;101387.23;;;;106846;1294;66616;-32
2022/01/23 01:55:48;;;;;;;7.20;3.30;;;;;;101389.34;;;;106664;1294;63518;-31
2022/01/23 02:09:19;;;;;;;6.30;3.00;;;;;;101387.63;;;;106862;1294;63401;-32
2022/01/23 02:12:11;;;;;;;6.50;3.50;;;;;;101379.63;;;;106821;1293;63536;-32
2022/01/23 02:23:07;;;;;;;5.80;2.90;;;;;;101384.95;;;;106821;1294;63495;-32
2022/01/23 02:51:26;;;;;;;5.90;2.90;;;;;;101409.00;;;;106787;1294;63435;-31
2022/01/23 02:56:44;;;;;;;5.90;3.00;;;;;;101412.65;;;;106809;1293;63407;-32
2022/01/23 02:59:20;;;;;;;6.30;3.10;;;;;;101418.86;;;;106832;1293;63376;-32
2022/01/23 03:02:11;;;;;;;6.20;2.70;;;;;;101419.48;;;;106824;1294;67310;-32
2022/01/23 03:04:48;;;;;;;5.60;2.70;;;;;;101423.02;;;;106803;1293;63435;-31
2022/01/23 03:10:07;;;;;;;6.30;2.80;;;;;;101423.59;;;;106643;1294;63756;-32
2022/01/23 03:26:24;;;;;;;5.60;2.60;;;;;;101460.32;;;;106792;1294;63392;-43
2022/01/23 03:29:18;;;;;;;6.00;2.90;;;;;;101460.30;;;;106596;1294;68220;-54
2022/01/23 03:34:25;;;;;;;5.50;2.50;;;;;;101465.44;;;;106807;1294;63402;-32
2022/01/23 03:36:54;;;;;;;5.10;2.60;;;;;;101471.30;;;;106805;1293;63470;-32
2022/01/23 03:39:22;;;;;;;5.70;2.70;;;;;;101471.92;;;;106830;1294;63382;-46
2022/01/23 03:41:50;;;;;;;6.00;2.70;;;;;;101473.37;;;;106847;1294;66110;-32
2022/01/23 03:44:17;;;;;;;5.40;2.80;;;;;;101478.02;;;;106829;1294;63711;-32
2022/01/23 03:49:31;;;;;;;6.10;3.00;;;;;;101477.92;;;;106797;1294;63367;-32
2022/01/23 03:52:09;;;;;;;5.30;2.60;;;;;;101480.77;;;;106826;1294;63459;-38
2022/01/23 03:54:38;;;;;;;5.80;2.80;;;;;;101488.61;;;;106850;1294;67287;-32
2022/01/23 03:57:09;;;;;;;5.40;2.80;;;;;;101489.07;;;;106829;1293;63360;-32
2022/01/23 03:59:39;;;;;;;5.00;2.50;;;;;;101495.84;;;;106816;1293;63377;-32
2022/01/23 04:02:06;;;;;;;5.60;2.80;;;;;;101503.69;;;;106826;1293;64015;-32
2022/01/23 04:04:40;;;;;;;5.10;2.60;;;;;;101513.27;;;;106811;1293;63456;-32
2022/01/23 04:07:25;;;;;;;5.10;2.40;;;;;;101514.23;;;;106809;1294;68050;-32
2022/01/23 04:09:53;;;;;;;5.50;2.50;;;;;;101512.96;;;;106795;1294;63399;-32
2022/01/23 04:14:59;;;;;;;5.00;2.50;;;;;;101515.28;;;;106656;1294;63532;-32
2022/01/23 04:48:30;;;;;;;6.60;2.60;;;;;;101527.64;;;;106817;1294;66813;-41
2022/01/23 05:01:15;;;;;;;6.00;2.40;;;;;;101519.41;;;;106692;1294;68210;-39
2022/01/23 05:06:21;;;;;;;5.20;2.50;;;;;;101523.02;;;;106819;1293;63388;-40
2022/01/23 05:08:49;;;;;;;5.20;2.60;;;;;;101524.60;;;;106825;1294;63316;-38
2022/01/23 05:11:17;;;;;;;5.70;2.70;;;;;;101531.44;;;;106837;1293;63364;-38
2022/01/23 05:13:44;;;;;;;5.00;2.40;;;;;;101538.91;;;;106651;1294;67159;-39
2022/01/23 05:16:14;;;;;;;5.30;2.80;;;;;;101550.80;;;;106571;1294;63480;-42
2022/01/23 05:18:45;;;;;;;4.60;2.30;;;;;;101557.61;;;;106859;1294;63410;-39
2022/01/23 05:21:41;;;;;;;5.50;2.80;;;;;;101554.89;;;;106647;1294;63340;-40
2022/01/23 05:24:04;;;;;;;4.60;2.70;;;;;;101562.91;;;;106879;1294;63453;-39
2022/01/23 05:26:34;;;;;;;5.80;2.80;;;;;;101565.77;;;;106882;1294;65589;-38
2022/01/23 05:29:02;;;;;;;5.60;2.60;;;;;;101566.94;;;;106850;1293;63393;-40
2022/01/23 05:31:29;;;;;;;4.90;2.40;;;;;;101571.95;;;;106860;1294;63359;-40
2022/01/23 05:33:56;;;;;;;5.70;2.40;;;;;;101566.80;;;;106866;1294;63409;-38
2022/01/23 05:36:23;;;;;;;5.30;2.30;;;;;;101573.84;;;;106876;1293;63409;-39
2022/01/23 05:38:51;;;;;;;5.10;2.50;;;;;;101571.84;;;;106874;1293;67318;-39
2022/01/23 05:41:21;;;;;;;4.30;2.00;;;;;;101570.79;;;;106861;1293;63599;-39
2022/01/23 05:43:49;;;;;;;6.00;2.40;;;;;;101571.68;;;;106877;1294;63379;-41
2022/01/23 05:46:19;;;;;;;6.20;2.40;;;;;;101572.50;;;;106867;1294;63351;-40
2022/01/23 05:48:46;;;;;;;4.80;2.30;;;;;;101574.33;;;;106884;1294;63325;-39
2022/01/23 05:51:14;;;;;;;5.60;2.70;;;;;;101578.36;;;;106691;1294;66782;-39
2022/01/23 05:53:41;;;;;;;5.90;2.30;;;;;;101581.82;;;;106843;1293;63389;-39
2022/01/23 05:56:09;;;;;;;6.00;2.80;;;;;;101578.25;;;;106865;1293;63444;-39
2022/01/23 05:58:37;;;;;;;5.00;2.40;;;;;;101586.76;;;;106664;1293;63436;-39
2022/01/23 06:01:05;;;;;;;6.60;2.70;;;;;;101594.48;;;;106859;1294;63518;-38
2022/01/23 06:03:32;;;;;;;5.40;2.80;;;;;;101600.95;;;;106863;1294;66901;-39
2022/01/23 06:06:02;;;;;;;4.90;2.10;;;;;;101602.90;;;;106840;1294;63443;-39
2022/01/23 06:08:30;;;;;;;5.30;2.40;;;;;;101602.55;;;;106846;1293;63382;-40
2022/01/23 06:10:58;;;;;;;7.10;2.90;;;;;;101605.35;;;;106571;1296;63366;-41
2022/01/23 06:13:27;;;;;;;5.60;2.40;;;;;;101606.70;;;;106597;1297;63391;-40
2022/01/23 06:15:56;;;;;;;5.00;2.60;;;;;;101610.02;;;;106604;1297;67268;-39
2022/01/23 06:18:26;;;;;;;5.30;2.90;;;;;;101614.17;;;;106696;1296;63340;-40
2022/01/23 06:20:53;;;;;;;5.30;2.40;;;;;;101615.50;;;;106571;1297;63393;-39
2022/01/23 06:23:24;;;;;;;9.10;3.20;;;;;;101612.73;;;;106707;1295;63478;-40
2022/01/23 06:25:51;;;;;;;5.20;2.30;;;;;;101619.61;;;;106726;1297;63311;-41
2022/01/23 06:28:49;;;;;;;5.50;2.80;;;;;;101619.63;;;;106709;1297;66820;-41
2022/01/23 06:31:19;;;;;;;5.90;2.70;;;;;;101624.76;;;;106687;1295;63523;-41
2022/01/23 06:33:46;;;;;;;5.40;2.90;;;;;;101627.09;;;;106728;1296;63456;-40
2022/01/23 06:36:16;;;;;;;6.40;2.70;;;;;;101629.43;;;;106696;1295;63506;-40
2022/01/23 06:38:43;;;;;;;5.50;2.60;;;;;;101630.74;;;;106558;1297;63348;-41
2022/01/23 06:41:13;;;;;;;7.10;3.10;;;;;;101635.84;;;;106721;1295;67356;-41
2022/01/23 06:43:41;;;;;;;5.70;2.70;;;;;;101638.41;;;;106708;1297;63501;-40
2022/01/23 06:46:08;;;;;;;5.60;2.80;;;;;;101646.79;;;;106714;1297;63427;-39
2022/01/23 06:48:35;;;;;;;6.20;2.70;;;;;;101655.02;;;;106698;1297;63419;-40
2022/01/23 06:51:02;;;;;;;6.10;2.90;;;;;;101661.26;;;;106569;1297;63792;-38
2022/01/23 06:53:29;;;;;;;6.50;2.90;;;;;;101664.46;;;;106726;1295;68306;-40
2022/01/23 06:55:59;;;;;;;6.50;2.80;;;;;;101665.83;;;;106703;1295;63525;-39
2022/01/23 06:58:30;;;;;;;5.10;2.50;;;;;;101670.87;;;;106733;1297;63400;-40
2022/01/23 07:00:57;;;;;;;7.30;2.90;;;;;;101675.89;;;;106694;1297;63373;-41
2022/01/23 07:03:24;;;;;;;7.20;2.60;;;;;;101682.45;;;;106611;1297;63383;-40
2022/01/23 07:05:52;;;;;;;5.30;2.40;;;;;;101692.75;;;;106716;1296;65821;-40
2022/01/23 07:08:22;;;;;;;5.60;2.70;;;;;;101699.77;;;;106717;1296;63549;-41
2022/01/23 07:10:49;;;;;;;6.10;3.10;;;;;;101704.30;;;;106722;1297;63523;-39
2022/01/23 07:13:20;;;;;;;6.10;2.70;;;;;;101707.55;;;;106705;1296;63514;-39
2022/01/23 07:15:48;;;;;;;5.90;2.90;;;;;;101712.54;;;;106735;1296;63401;-39
2022/01/23 07:18:18;;;;;;;5.60;2.70;;;;;;101715.89;;;;106579;1297;67561;-38
2022/01/23 07:20:46;;;;;;;5.40;2.90;;;;;;101716.81;;;;106598;1296;63423;-38
2022/01/23 07:23:14;;;;;;;5.00;2.40;;;;;;101718.64;;;;106708;1297;63426;-40
2022/01/23 07:25:42;;;;;;;5.40;2.70;;;;;;101720.73;;;;106742;1296;63419;-39
2022/01/23 07:28:15;;;;;;;5.80;2.80;;;;;;101724.79;;;;106735;1295;63364;-40
2022/01/23 07:30:53;;;;;;;6.50;3.20;;;;;;101723.52;;;;106742;1296;68098;-40
2022/01/23 07:33:23;;;;;;;5.50;2.80;;;;;;101720.17;;;;106568;1296;63482;-39
2022/01/23 07:35:50;;;;;;;6.20;3.00;;;;;;101721.79;;;;106715;1297;63304;-41
2022/01/23 07:38:17;;;;;;;6.60;2.90;;;;;;101729.67;;;;106553;1297;63477;-39
2022/01/23 07:40:48;;;;;;;6.10;3.20;;;;;;101732.06;;;;106739;1295;63330;-40
2022/01/23 07:43:18;;;;;;;5.60;2.70;;;;;;101737.99;;;;106608;1297;65640;-40
2022/01/23 07:45:46;;;;;;;5.60;2.80;;;;;;101745.98;;;;106712;1296;63366;-41
2022/01/23 07:48:13;;;;;;;6.60;2.90;;;;;;101746.20;;;;106699;1296;63583;-41
2022/01/23 07:50:40;;;;;;;6.00;3.00;;;;;;101746.66;;;;106699;1297;63469;-39
2022/01/23 07:53:07;;;;;;;6.90;3.00;;;;;;101749.28;;;;106727;1296;63325;-39
2022/01/23 07:55:34;;;;;;;5.60;3.00;;;;;;101755.48;;;;106592;1297;67035;-41
2022/01/23 07:58:12;;;;;;;6.00;2.70;;;;;;101757.23;;;;106705;1296;63497;-41
2022/01/23 08:00:41;;;;;;;5.50;2.70;;;;;;101765.59;;;;106731;1297;63421;-41
2022/01/23 08:03:11;;;;;;;6.10;3.10;;;;;;101774.37;;;;106686;1295;63455;-41
2022/01/23 08:05:45;;;;;;;5.50;3.00;;;;;;101779.79;;;;106738;1296;63290;-41
2022/01/23 08:08:12;;;;;;;;;;;;;;101787.10;;;;106722;1297;68215;-41
2022/01/23 08:10:40;;;;;;;6.10;2.80;;;;;;101791.70;;;;106586;1296;63470;-39
2022/01/23 08:13:07;;;;;;;5.00;2.30;;;;;;101794.16;;;;106725;1295;63417;-40
2022/01/23 08:15:35;;;;;;;5.60;2.40;;;;;;101792.39;;;;106717;1295;63401;-40
2022/01/23 08:18:06;;;;;;;5.80;2.80;;;;;;101796.17;;;;106749;1295;63461;-39
2022/01/23 08:20:34;;;;;;;5.50;2.80;;;;;;101799.60;;;;106739;1295;68054;-40
2022/01/23 08:23:03;;;;;;;5.90;2.70;;;;;;101794.38;;;;106721;1296;63394;-39
2022/01/23 08:25:32;;;;;;;5.00;2.50;;;;;;101792.00;;;;106583;1296;63423;-40
2022/01/23 08:28:01;;;;;;;5.10;2.20;;;;;;101792.55;;;;106704;1297;63537;-38
2022/01/23 08:30:28;;;;;;;5.40;2.80;;;;;;101795.41;;;;106741;1297;63423;-40
2022/01/23 08:32:55;;;;;;;5.20;2.30;;;;;;101798.11;;;;106665;1296;67042;-39
2022/01/23 08:35:23;;;;;;;5.20;2.40;;;;;;101805.14;;;;106680;1297;63450;-40
2022/01/23 08:37:52;;;;;;;4.50;2.20;;;;;;101814.41;;;;106576;1296;63390;-38
2022/01/23 08:40:23;;;;;;;6.10;2.60;;;;;;101821.52;;;;106614;1296;63491;-41
2022/01/23 08:42:52;;;;;;;4.80;2.30;;;;;;101828.92;;;;106672;1296;63406;-40
2022/01/23 08:45:20;;;;;;;5.60;2.50;;;;;;101831.23;;;;106727;1296;66708;-43
2022/01/23 08:47:47;;;;;;;6.50;3.00;;;;;;101838.26;;;;106720;1297;63479;-42
2022/01/23 08:50:18;;;;;;;4.30;2.10;;;;;;101842.44;;;;106742;1296;63386;-42
2022/01/23 08:52:45;;;;;;;4.80;2.30;;;;;;101847.47;;;;106632;1297;63425;-32
2022/01/23 08:55:15;;;;;;;4.90;2.30;;;;;;101847.70;;;;106749;1297;63321;-32
2022/01/23 08:57:43;;;;;;;4.80;2.20;;;;;;101849.50;;;;106506;1296;67405;-32
2022/01/23 09:00:10;;;;;;;5.50;2.50;;;;;;101859.15;;;;106575;1297;63428;-33
2022/01/23 09:02:37;;;;;;;4.50;2.10;;;;;;101859.86;;;;106243;1297;457653;-32
2022/01/23 09:05:05;;;;;;;5.10;2.10;;;;;;101858.32;;;;106709;1295;63483;-33
2022/01/23 09:07:35;;;;;;;5.00;2.10;;;;;;101864.35;;;;106752;1297;63393;-32
2022/01/23 09:10:06;;;;;;;5.80;2.50;;;;;;101865.10;;;;106750;1296;67354;-32
2022/01/23 09:15:06;;;;;;;5.30;2.20;;;;;;101872.87;;;;106737;1296;63427;-32
2022/01/23 09:17:36;;;;;;;4.20;2.10;;;;;;101873.42;;;;106578;1297;63473;-32
2022/01/23 09:20:04;;;;;;;4.60;2.10;;;;;;101878.98;;;;106741;1295;63315;-33
2022/01/23 09:22:31;;;;;;;4.70;2.30;;;;;;101876.55;;;;106641;1296;65577;-33
2022/01/23 09:25:00;;;;;;;4.60;1.90;;;;;;101879.09;;;;106727;1296;63309;-32
2022/01/23 09:27:30;;;;;;;4.90;2.10;;;;;;101882.09;;;;106638;1297;63428;-33
2022/01/23 09:30:05;;;;;;;5.10;2.30;;;;;;101879.61;;;;106713;1297;63456;-32
2022/01/23 09:32:33;;;;;;;5.20;1.90;;;;;;101881.56;;;;106659;1295;63361;-33
2022/01/23 09:35:01;;;;;;;5.50;2.10;;;;;;101884.38;;;;106722;1296;66783;-33
2022/01/23 09:37:28;;;;;;;5.10;2.00;;;;;;101891.05;;;;106737;1297;63393;-32
2022/01/23 09:39:55;;;;;;;5.60;2.50;;;;;;101891.27;;;;106712;1295;63347;-32
2022/01/23 09:42:40;;;;;;;5.90;2.60;;;;;;101891.21;;;;106743;1296;63408;-32
2022/01/23 09:45:11;;;;;;;6.20;3.20;;;;;;101888.14;;;;106516;1297;63463;-33
2022/01/23 09:47:39;;;;;;;7.80;3.40;;;;;;101883.02;;;;106734;1296;68537;-33
2022/01/23 09:50:10;;;;;;;10.40;4.20;;;;;;101880.89;;;;106724;1295;63450;-32
2022/01/23 09:52:39;;;;;;;9.80;3.70;;;;;;101874.49;;;;106745;1297;63465;-32
2022/01/23 09:55:12;;;;;;;9.30;4.10;;;;;;101876.55;;;;106584;1297;63428;-33
2022/01/23 09:57:44;;;;;;;9.70;4.40;;;;;;101879.96;;;;106522;1297;63462;-31
2022/01/23 10:00:16;;;;;;;10.10;4.60;;;;;;101881.86;;;;106769;1295;66841;-41
2022/01/23 10:02:47;;;;;;;10.50;5.50;;;;;;101878.42;;;;106745;1297;63459;-42
2022/01/23 10:05:14;;;;;;;9.20;5.60;;;;;;101881.29;;;;106640;1295;63441;-40
2022/01/23 10:07:43;;;;;;;10.00;6.10;;;;;;101877.42;;;;106732;1296;63418;-46
2022/01/23 10:10:17;;;;;;;11.40;6.00;;;;;;101874.87;;;;106774;1297;63376;-40
2022/01/23 10:12:55;;;;;;;10.30;6.20;;;;;;101869.70;;;;106600;1297;68183;-42
2022/01/23 10:15:26;;;;;;;9.10;6.00;;;;;;101865.20;;;;106575;1297;63501;-43
2022/01/23 10:17:57;;;;;;;10.50;7.00;;;;;;101865.15;;;;106736;1296;63480;-42
2022/01/23 10:20:25;;;;;;;9.90;6.10;;;;;;101865.63;;;;106754;1297;63433;-48
2022/01/23 10:22:55;;;;;;;12.00;7.30;;;;;;101871.96;;;;106600;1296;63324;-42
2022/01/23 10:25:31;;;;;;;11.10;7.00;;;;;;101873.91;;;;106747;1296;66818;-42
2022/01/23 10:28:06;;;;;;;11.30;6.40;;;;;;101875.55;;;;106588;1296;63508;-43
2022/01/23 10:30:42;;;;;;;9.80;6.40;;;;;;101875.69;;;;106728;1296;63299;-40
2022/01/23 10:33:18;;;;;;;9.30;6.30;;;;;;101878.84;;;;106738;1297;63506;-41
2022/01/23 10:36:03;;;;;;;10.20;6.30;;;;;;101884.11;;;;106739;1297;63358;-41
2022/01/23 10:38:41;;;;;;;9.50;5.70;;;;;;101886.70;;;;106597;1296;67939;-42
2022/01/23 10:50:01;;;;;;;11.00;6.90;;;;;;101887.66;;;;106631;1297;63406;-41
2022/01/23 10:52:48;;;;;;;9.40;6.20;;;;;;101885.04;;;;106766;1297;68101;-41
2022/01/23 10:55:21;;;;;;;9.80;5.80;;;;;;101885.96;;;;106777;1297;63400;-42
2022/01/23 10:57:51;;;;;;;8.40;5.30;;;;;;101884.27;;;;106750;1295;63499;-42
2022/01/23 11:00:31;;;;;;;9.60;5.80;;;;;;101885.17;;;;106515;1297;63440;-42
2022/01/23 11:03:03;;;;;;;9.50;5.70;;;;;;101888.80;;;;106779;1297;63461;-42
2022/01/23 11:05:41;;;;;;;7.80;5.10;;;;;;101881.23;;;;106497;1297;66999;-43
2022/01/23 11:08:23;;;;;;;9.20;5.50;;;;;;101879.61;;;;106652;1297;63510;-43
2022/01/23 11:11:00;;;;;;;10.00;5.80;;;;;;101877.97;;;;106653;1297;63331;-43
2022/01/23 11:19:41;;;;;;;7.20;5.10;;;;;;101882.05;;;;106809;1297;66932;-41
2022/01/23 11:22:20;;;;;;;8.30;4.70;;;;;;101890.08;;;;106789;1296;63506;-40
2022/01/23 11:24:48;;;;;;;8.10;5.20;;;;;;101892.69;;;;106781;1296;63348;-43
2022/01/23 11:27:20;;;;;;;7.70;4.90;;;;;;101894.84;;;;106774;1296;63414;-43
2022/01/23 11:30:04;;;;;;;9.80;5.50;;;;;;101899.16;;;;106822;1297;63383;-42
2022/01/23 11:32:40;;;;;;;8.10;4.80;;;;;;101893.45;;;;106801;1296;68197;-41
2022/01/23 11:35:15;;;;;;;7.40;4.40;;;;;;101893.79;;;;106620;1297;63385;-40
2022/01/23 11:37:49;;;;;;;7.20;4.30;;;;;;101894.86;;;;106804;1296;63480;-41
2022/01/23 11:40:41;;;;;;;8.50;4.60;;;;;;101900.77;;;;106773;1296;63407;-41
2022/01/23 11:54:51;;;;;;;6.40;4.30;;;;;;101912.06;;;;106750;1297;63401;-41
2022/01/23 11:57:34;;;;;;;7.30;4.30;;;;;;101918.95;;;;106517;1297;63470;-41
2022/01/23 12:00:09;;;;;;;8.40;4.50;;;;;;101916.77;;;;106747;1296;66679;-40
2022/01/23 12:02:42;;;;;;;9.00;4.90;;;;;;101913.27;;;;106739;1296;63438;-41
2022/01/23 12:07:41;;;;;;;7.10;4.30;;;;;;101910.58;;;;106723;1297;63572;-42
2022/01/23 12:10:31;;;;;;;7.60;4.00;;;;;;101914.56;;;;106776;1296;63413;-39
2022/01/23 12:13:56;;;;;;;5.80;3.80;;;;;;101910.17;;;;106758;1296;66768;-41
2022/01/23 12:17:00;;;;;;;6.90;4.20;;;;;;101902.97;;;;106266;1303;63467;-40
2022/01/23 12:19:31;;;;;;;6.20;3.80;;;;;;101905.17;;;;106608;1297;63543;-43
2022/01/23 12:22:23;;;;;;;6.30;3.90;;;;;;101907.23;;;;106588;1297;63403;-43
2022/01/23 12:24:56;;;;;;;7.00;4.40;;;;;;101920.89;;;;106591;1297;63438;-42
2022/01/23 12:27:29;;;;;;;6.10;4.00;;;;;;101921.63;;;;106749;1297;66812;-43
2022/01/23 12:30:12;;;;;;;6.50;4.00;;;;;;101930.86;;;;106743;1297;63350;-41
2022/01/23 12:32:39;;;;;;;7.10;4.10;;;;;;101936.67;;;;106611;1297;63448;-41
2022/01/23 12:35:11;;;;;;;6.00;3.70;;;;;;101937.77;;;;106553;1297;63429;-41
2022/01/23 12:38:00;;;;;;;6.60;3.40;;;;;;101943.09;;;;106768;1296;63416;-38
2022/01/23 12:40:31;;;;;;;5.70;3.60;;;;;;101946.80;;;;106754;1296;66552;-40
2022/01/23 12:43:17;;;;;;;5.80;3.60;;;;;;101952.13;;;;106587;1297;63424;-42
2022/01/23 12:46:02;;;;;;;6.10;3.60;;;;;;101958.67;;;;106756;1296;63436;-37
2022/01/23 12:48:32;;;;;;;6.10;3.70;;;;;;101961.52;;;;106525;1296;63427;-33
2022/01/23 12:51:29;;;;;;;5.50;3.60;;;;;;101964.61;;;;106766;1297;63380;-34
2022/01/23 12:53:56;;;;;;;6.00;3.40;;;;;;101968.69;;;;106773;1297;68046;-33
2022/01/23 12:56:43;;;;;;;5.90;3.50;;;;;;101975.61;;;;106729;1297;63487;-38
2022/01/23 12:59:24;;;;;;;5.20;3.30;;;;;;101974.39;;;;106766;1296;63288;-42
2022/01/23 13:02:01;;;;;;;7.10;3.70;;;;;;101972.38;;;;106654;1297;63415;-34
2022/01/23 13:04:38;;;;;;;5.90;3.50;;;;;;101973.39;;;;106782;1296;63383;-40
2022/01/23 13:07:23;;;;;;;5.50;3.30;;;;;;101976.34;;;;106752;1295;68600;-42
2022/01/23 13:09:56;;;;;;;5.50;3.10;;;;;;101979.54;;;;106725;1297;64918;-41
2022/01/23 13:15:23;;;;;;;7.90;3.50;;;;;;101989.93;;;;106742;1297;63467;-36
2022/01/23 13:35:08;;;;;;;5.40;3.00;;;;;;102005.71;;;;106757;1297;68279;-42
2022/01/23 13:37:45;;;;;;;5.60;3.10;;;;;;102004.03;;;;106577;1297;63459;-47
2022/01/23 13:40:26;;;;;;;4.80;3.10;;;;;;102001.38;;;;106752;1295;63506;-42
2022/01/23 13:57:38;;;;;;;5.40;3.00;;;;;;102016.13;;;;106732;1297;63326;-42
2022/01/23 14:00:05;;;;;;;5.10;2.60;;;;;;102012.67;;;;106747;1295;63448;-42
2022/01/23 14:02:39;;;;;;;5.10;2.60;;;;;;102011.98;;;;106770;1297;68163;-42
2022/01/23 14:05:19;;;;;;;4.60;2.50;;;;;;102010.15;;;;106489;1297;63615;-40
2022/01/23 14:07:50;;;;;;;5.20;2.80;;;;;;102008.61;;;;106736;1296;63538;-41
2022/01/23 14:10:32;;;;;;;5.20;3.10;;;;;;102006.52;;;;106731;1297;63841;-42
2022/01/23 14:13:14;;;;;;;5.50;2.80;;;;;;102009.75;;;;106762;1297;63355;-41
2022/01/23 14:15:54;;;;;;;4.70;2.60;;;;;;102013.39;;;;106745;1296;66870;-41
2022/01/23 14:18:28;;;;;;;4.70;2.80;;;;;;102017.20;;;;106634;1297;63527;-32
2022/01/23 14:21:04;;;;;;;4.90;2.50;;;;;;102020.45;;;;106717;1296;63480;-33
2022/01/23 14:23:36;;;;;;;5.90;3.70;;;;;;102023.90;;;;106547;1297;63390;-32
2022/01/23 14:26:15;;;;;;;5.90;3.00;;;;;;102023.45;;;;106747;1297;63355;-32
2022/01/23 14:28:50;;;;;;;6.40;3.00;;;;;;102027.50;;;;106757;1296;68586;-33
2022/01/23 14:31:21;;;;;;;6.80;2.70;;;;;;102026.59;;;;106730;1297;63410;-32
2022/01/23 14:33:56;;;;;;;7.10;3.10;;;;;;102027.30;;;;106735;1296;63277;-32
2022/01/23 14:36:26;;;;;;;5.30;3.00;;;;;;102036.11;;;;106424;1297;63456;-32
2022/01/23 14:39:11;;;;;;;6.10;3.20;;;;;;102041.52;;;;106755;1295;63384;-33
2022/01/23 14:41:43;;;;;;;6.70;3.30;;;;;;102041.91;;;;106585;1296;67313;-33
2022/01/23 14:44:20;;;;;;;5.70;2.90;;;;;;102039.21;;;;106705;1297;63462;-42
2022/01/23 14:46:50;;;;;;;6.70;3.40;;;;;;102040.80;;;;106558;1297;63439;-40
2022/01/23 14:49:25;;;;;;;5.90;3.30;;;;;;102040.05;;;;106455;1297;63338;-42
2022/01/23 14:51:55;;;;;;;7.30;3.70;;;;;;102039.18;;;;106703;1296;63655;-41
2022/01/23 14:54:25;;;;;;;6.90;3.40;;;;;;102043.10;;;;106602;1297;65583;-41
2022/01/23 14:56:52;;;;;;;8.80;3.40;;;;;;102042.61;;;;106711;1297;63543;-41
2022/01/23 14:59:20;;;;;;;6.90;3.40;;;;;;102039.66;;;;106706;1295;63852;-42
2022/01/23 15:01:47;;;;;;;7.70;3.20;;;;;;102045.77;;;;106627;1296;63409;-36
2022/01/23 15:04:15;;;;;;;8.60;3.40;;;;;;102047.98;;;;106730;1296;63393;-38
2022/01/23 15:06:46;;;;;;;7.50;3.40;;;;;;102041.48;;;;106716;1297;67028;-37
2022/01/23 15:09:17;;;;;;;6.00;3.30;;;;;;102038.91;;;;106628;1296;63525;-35
2022/01/23 15:11:44;;;;;;;6.00;3.10;;;;;;102034.27;;;;106650;1297;63344;-36
2022/01/23 15:14:12;;;;;;;5.90;2.80;;;;;;102041.86;;;;106622;1297;63360;-35
2022/01/23 15:16:42;;;;;;;6.10;2.90;;;;;;102040.33;;;;106707;1296;63403;-35
2022/01/23 15:19:12;;;;;;;5.40;2.90;;;;;;102039.94;;;;106725;1296;67011;-35
2022/01/23 15:21:39;;;;;;;6.80;3.00;;;;;;102043.90;;;;106691;1297;63528;-35
2022/01/23 15:24:06;;;;;;;8.00;3.30;;;;;;102052.55;;;;106720;1297;63371;-35
2022/01/23 15:26:37;;;;;;;6.40;2.90;;;;;;102059.70;;;;106724;1296;63326;-35
2022/01/23 15:29:05;;;;;;;7.50;3.30;;;;;;102061.65;;;;106743;1296;63315;-34
2022/01/23 15:31:37;;;;;;;6.60;3.20;;;;;;102059.20;;;;106731;1295;65542;-34
2022/01/23 15:34:05;;;;;;;6.40;3.00;;;;;;102060.36;;;;106730;1296;63580;-35
2022/01/23 15:36:33;;;;;;;6.50;2.90;;;;;;102054.06;;;;106632;1296;63566;-35
2022/01/23 15:39:01;;;;;;;5.90;3.00;;;;;;102055.00;;;;106587;1296;63457;-34
2022/01/23 15:41:28;;;;;;;7.20;3.20;;;;;;102049.09;;;;106513;1297;63410;-35
2022/01/23 15:43:55;;;;;;;5.50;2.90;;;;;;102052.54;;;;106732;1297;68101;-35
2022/01/23 15:46:23;;;;;;;5.70;2.90;;;;;;102059.27;;;;106726;1297;63515;-35
2022/01/23 15:48:50;;;;;;;6.10;3.00;;;;;;102067.23;;;;106717;1295;63403;-34
2022/01/23 15:51:18;;;;;;;6.00;3.10;;;;;;102069.36;;;;106689;1296;63491;-34
2022/01/23 15:53:45;;;;;;;6.20;3.20;;;;;;102073.45;;;;106758;1296;63401;-35
2022/01/23 15:56:12;;;;;;;5.90;3.10;;;;;;102075.27;;;;106729;1295;67300;-34
2022/01/23 15:58:39;;;;;;;6.70;3.50;;;;;;102074.71;;;;106695;1296;63493;-34
2022/01/23 16:01:07;;;;;;;5.20;2.70;;;;;;102069.55;;;;106691;1296;63282;-34
2022/01/23 16:03:34;;;;;;;6.60;3.60;;;;;;102068.06;;;;106508;1297;63367;-35
2022/01/23 16:06:01;;;;;;;5.90;3.20;;;;;;102075.58;;;;106700;1296;63903;-35
2022/01/23 16:08:29;;;;;;;6.30;2.80;;;;;;102083.67;;;;106710;1297;68561;-34
2022/01/23 16:10:56;;;;;;;5.90;3.00;;;;;;102081.77;;;;106692;1295;63409;-34
2022/01/23 16:13:23;;;;;;;6.40;3.60;;;;;;102088.00;;;;106725;1296;63396;-34
2022/01/23 16:15:50;;;;;;;6.60;3.20;;;;;;102098.00;;;;106633;1296;63387;-34
2022/01/23 16:18:17;;;;;;;5.80;3.00;;;;;;102097.79;;;;106564;1297;63398;-35
2022/01/23 16:20:47;;;;;;;5.90;3.40;;;;;;102099.86;;;;106706;1295;66752;-34
2022/01/23 16:23:15;;;;;;;6.10;3.40;;;;;;102099.05;;;;106700;1296;63342;-34
2022/01/23 16:25:42;;;;;;;5.20;2.80;;;;;;102103.57;;;;106633;1296;63975;-35
2022/01/23 16:28:09;;;;;;;6.70;3.40;;;;;;102112.23;;;;106693;1296;63530;-34
2022/01/23 16:30:50;;;;;;;6.20;3.40;;;;;;102113.16;;;;106598;1297;63333;-35
2022/01/23 16:33:19;;;;;;;6.30;3.50;;;;;;102110.77;;;;106577;1297;68555;-34
2022/01/23 16:35:47;;;;;;;6.60;3.50;;;;;;102107.35;;;;106702;1297;63377;-35
2022/01/23 16:38:14;;;;;;;4.90;3.10;;;;;;102115.62;;;;106590;1297;63423;-35